Time;durP1;ratioP1;P1;durP2;ratioP2;P2;SDS_P1;SDS_P2;PMS_P1;PMS_P2;Temp;Humidity;BMP_temperature;BMP_pressure;BME280_temperature;BME280_humidity;BME280_pressure;Samples;Min_cycle;Max_cycle;Signal;HPM_P1;HPM_P2
2023/05/14 00:00:51;;;;;;;19.00;12.02;;;12.00;99.90;;;;;;5052248;28;20162;-59
2023/05/14 00:03:17;;;;;;;15.35;13.10;;;12.00;99.90;;;;;;5067467;28;20033;-58
2023/05/14 00:05:42;;;;;;;23.88;14.25;;;12.00;99.90;;;;;;5029869;28;20507;-59
2023/05/14 00:08:08;;;;;;;19.10;11.68;;;11.90;99.90;;;;;;5028484;28;20040;-58
2023/05/14 00:10:34;;;;;;;17.48;12.20;;;12.00;99.90;;;;;;5046497;28;20055;-58
2023/05/14 00:13:00;;;;;;;16.08;11.60;;;12.00;99.90;;;;;;5048894;28;20033;-58
2023/05/14 00:15:26;;;;;;;18.50;11.73;;;12.00;99.90;;;;;;5035591;28;20139;-58
2023/05/14 00:17:51;;;;;;;15.98;11.00;;;12.00;99.90;;;;;;5026098;28;20522;-58
2023/05/14 00:20:17;;;;;;;14.68;11.23;;;12.00;99.90;;;;;;5050702;28;20048;-58
2023/05/14 00:22:43;;;;;;;18.40;11.95;;;12.00;99.90;;;;;;5047757;28;20392;-58
2023/05/14 00:25:09;;;;;;;15.82;10.90;;;12.00;99.90;;;;;;5034493;28;20039;-58
2023/05/14 00:27:36;;;;;;;23.15;13.05;;;12.00;99.90;;;;;;5064410;28;20102;-57
2023/05/14 00:30:05;;;;;;;17.00;12.32;;;12.00;99.90;;;;;;5048486;28;20044;-59
2023/05/14 00:32:31;;;;;;;14.82;10.63;;;12.00;99.90;;;;;;5051117;28;20131;-58
2023/05/14 00:34:57;;;;;;;16.70;10.23;;;12.00;99.90;;;;;;5062992;28;20131;-58
2023/05/14 00:37:23;;;;;;;16.17;10.80;;;12.00;99.90;;;;;;5030565;28;20037;-58
2023/05/14 00:39:48;;;;;;;16.65;11.02;;;12.00;99.90;;;;;;5036066;28;20321;-57
2023/05/14 00:42:14;;;;;;;14.32;10.88;;;12.00;99.90;;;;;;5029192;28;20040;-58
2023/05/14 00:44:40;;;;;;;13.20;8.90;;;12.00;99.90;;;;;;5045179;28;20040;-58
2023/05/14 00:47:07;;;;;;;20.92;10.35;;;12.00;99.90;;;;;;5045036;28;20069;-58
2023/05/14 00:49:33;;;;;;;16.52;10.05;;;12.00;99.90;;;;;;5031121;28;20048;-58
2023/05/14 00:51:59;;;;;;;15.93;9.75;;;11.90;99.90;;;;;;5046961;28;20045;-59
2023/05/14 00:54:26;;;;;;;17.30;10.27;;;11.90;99.90;;;;;;5033528;28;20101;-59
2023/05/14 00:56:53;;;;;;;11.38;9.13;;;11.90;99.90;;;;;;5060118;28;20441;-58
2023/05/14 00:59:19;;;;;;;14.57;9.63;;;11.90;99.90;;;;;;5043888;28;20052;-58
2023/05/14 01:01:45;;;;;;;16.00;9.25;;;12.00;99.90;;;;;;5033176;28;20040;-58
2023/05/14 01:04:11;;;;;;;14.48;9.60;;;12.00;99.90;;;;;;5049920;28;20106;-58
2023/05/14 01:06:40;;;;;;;19.13;9.38;;;11.90;99.90;;;;;;5052344;28;20049;-58
2023/05/14 01:09:31;;;;;;;12.85;8.77;;;11.90;99.90;;;;;;5049972;28;20041;-58
2023/05/14 01:12:08;;;;;;;17.40;8.70;;;11.90;99.90;;;;;;5067452;28;20055;-58
2023/05/14 01:14:43;;;;;;;11.43;9.13;;;11.90;99.90;;;;;;5033698;28;20399;-58
2023/05/14 01:17:12;;;;;;;10.75;8.73;;;11.90;99.90;;;;;;5048551;28;20119;-59
2023/05/14 01:19:45;;;;;;;13.10;9.07;;;11.90;99.90;;;;;;5052192;28;20045;-58
2023/05/14 01:22:11;;;;;;;13.45;9.13;;;11.90;99.90;;;;;;5037255;28;20118;-59
2023/05/14 01:24:37;;;;;;;15.45;9.57;;;11.80;99.90;;;;;;5049980;28;20543;-59
2023/05/14 01:27:26;;;;;;;15.45;9.85;;;11.80;99.90;;;;;;5040194;28;20071;-58
2023/05/14 01:30:00;;;;;;;16.80;10.10;;;11.70;99.90;;;;;;5054987;28;20052;-58
2023/05/14 01:32:27;;;;;;;16.85;9.57;;;11.70;99.90;;;;;;5044920;28;20040;-59
2023/05/14 01:34:56;;;;;;;16.10;10.13;;;11.60;99.90;;;;;;5050605;28;20059;-58
2023/05/14 01:37:22;;;;;;;14.90;9.40;;;11.60;99.90;;;;;;5048180;28;20373;-59
2023/05/14 01:39:49;;;;;;;18.80;10.55;;;11.60;99.90;;;;;;5046076;28;20395;-58
2023/05/14 01:42:15;;;;;;;16.75;10.13;;;11.60;99.90;;;;;;5033844;28;20131;-58
2023/05/14 01:44:41;;;;;;;19.60;10.98;;;11.60;99.90;;;;;;5052803;28;20177;-58
2023/05/14 01:47:07;;;;;;;13.88;10.35;;;11.60;99.90;;;;;;5036952;28;20048;-57
2023/05/14 01:49:33;;;;;;;16.80;10.48;;;11.60;99.90;;;;;;5052275;28;20055;-58
2023/05/14 01:51:58;;;;;;;18.33;10.40;;;11.60;99.90;;;;;;5032522;28;20049;-58
2023/05/14 01:54:24;;;;;;;21.73;11.60;;;11.60;99.90;;;;;;5057315;28;20050;-59
2023/05/14 01:56:50;;;;;;;22.13;12.15;;;11.60;99.90;;;;;;5016490;28;20032;-60
2023/05/14 01:59:16;;;;;;;16.42;11.00;;;11.60;99.90;;;;;;5037534;28;20075;-58
2023/05/14 02:01:42;;;;;;;25.90;12.95;;;11.60;99.90;;;;;;5048342;28;20715;-58
2023/05/14 02:04:07;;;;;;;20.42;12.13;;;11.70;99.90;;;;;;5026098;28;20249;-59
2023/05/14 02:06:33;;;;;;;16.52;12.35;;;11.70;99.90;;;;;;5037925;28;20041;-58
2023/05/14 02:08:59;;;;;;;21.02;12.88;;;11.70;99.90;;;;;;5014272;28;20755;-58
2023/05/14 02:11:25;;;;;;;18.85;12.25;;;11.70;99.90;;;;;;5047687;28;20127;-59
2023/05/14 02:13:51;;;;;;;17.67;11.73;;;11.60;99.90;;;;;;5007424;28;20244;-59
2023/05/14 02:16:18;;;;;;;19.98;12.90;;;11.60;99.90;;;;;;5052954;28;20826;-59
2023/05/14 02:18:43;;;;;;;18.35;11.43;;;11.60;99.90;;;;;;5030566;28;20051;-58
2023/05/14 02:21:09;;;;;;;22.02;13.10;;;11.60;99.90;;;;;;5018559;28;20689;-58
2023/05/14 02:23:35;;;;;;;23.17;12.93;;;11.60;99.90;;;;;;5051922;28;20093;-59
2023/05/14 02:26:00;;;;;;;21.10;10.95;;;11.60;99.90;;;;;;5052889;28;20056;-59
2023/05/14 02:28:26;;;;;;;20.77;11.05;;;11.60;99.90;;;;;;5030983;28;20545;-58
2023/05/14 02:30:58;;;;;;;17.23;10.25;;;11.60;99.90;;;;;;5049879;28;20039;-58
2023/05/14 02:33:23;;;;;;;17.48;9.98;;;11.60;99.90;;;;;;5045821;28;20379;-59
2023/05/14 02:35:49;;;;;;;22.48;10.13;;;11.60;99.90;;;;;;5052949;28;20462;-59
2023/05/14 02:38:15;;;;;;;20.55;9.35;;;11.60;99.90;;;;;;5047804;28;20037;-59
2023/05/14 02:40:41;;;;;;;14.95;8.35;;;11.60;99.90;;;;;;5054244;28;20491;-59
2023/05/14 02:43:06;;;;;;;17.67;8.38;;;11.60;99.90;;;;;;5030000;28;20124;-58
2023/05/14 02:45:32;;;;;;;16.80;8.43;;;11.60;99.90;;;;;;5030506;28;20048;-58
2023/05/14 02:47:58;;;;;;;17.23;8.43;;;11.60;99.90;;;;;;5082202;22;20040;-61
2023/05/14 02:50:23;;;;;;;18.48;8.55;;;11.60;99.90;;;;;;5072099;28;20375;-62
2023/05/14 02:52:49;;;;;;;24.38;10.48;;;11.60;99.90;;;;;;5086717;28;20040;-61
2023/05/14 02:55:15;;;;;;;19.15;9.38;;;11.70;99.90;;;;;;5067862;28;20036;-60
2023/05/14 02:57:41;;;;;;;20.25;9.48;;;11.60;99.90;;;;;;5089330;28;20036;-61
2023/05/14 03:00:08;;;;;;;20.10;10.48;;;11.60;99.90;;;;;;5050526;28;20215;-61
2023/05/14 03:02:34;;;;;;;27.42;10.85;;;11.60;99.90;;;;;;5065562;28;20114;-61
2023/05/14 03:05:00;;;;;;;22.60;10.60;;;11.60;99.90;;;;;;5069053;28;20036;-61
2023/05/14 03:07:26;;;;;;;25.52;10.13;;;11.60;99.90;;;;;;5066873;28;20040;-61
2023/05/14 03:09:52;;;;;;;22.45;10.10;;;11.60;99.90;;;;;;5071861;28;20605;-61
2023/05/14 03:12:18;;;;;;;24.40;10.13;;;11.60;99.90;;;;;;5072850;28;20051;-60
2023/05/14 03:14:44;;;;;;;20.65;10.48;;;11.50;99.90;;;;;;5090675;28;20036;-60
2023/05/14 03:17:09;;;;;;;18.38;9.68;;;11.50;99.90;;;;;;5090168;28;20322;-61
2023/05/14 03:19:35;;;;;;;21.52;11.13;;;11.50;99.90;;;;;;5055651;28;20039;-61
2023/05/14 03:22:01;;;;;;;21.20;11.38;;;11.50;99.90;;;;;;5078663;22;20048;-57
2023/05/14 03:24:27;;;;;;;20.23;10.35;;;11.50;99.90;;;;;;5065032;28;20588;-58
2023/05/14 03:26:52;;;;;;;25.73;11.73;;;11.50;99.90;;;;;;5062891;28;20269;-58
2023/05/14 03:29:18;;;;;;;19.10;11.07;;;11.40;99.90;;;;;;5068104;28;20048;-56
2023/05/14 03:31:44;;;;;;;18.95;8.93;;;11.40;99.90;;;;;;5046528;28;20479;-57
2023/05/14 03:34:10;;;;;;;19.38;9.93;;;11.40;99.90;;;;;;5032392;28;20178;-56
2023/05/14 03:36:37;;;;;;;27.23;11.52;;;11.50;99.90;;;;;;5059462;22;20033;-62
2023/05/14 03:39:05;;;;;;;21.20;10.05;;;11.40;99.90;;;;;;5045213;28;20042;-62
2023/05/14 03:41:31;;;;;;;23.25;11.65;;;11.40;99.90;;;;;;5045618;28;20124;-62
2023/05/14 03:43:57;;;;;;;20.27;10.23;;;11.40;99.90;;;;;;5042200;28;20044;-62
2023/05/14 03:46:23;;;;;;;24.33;9.57;;;11.40;99.90;;;;;;5040951;28;20400;-62
2023/05/14 03:48:48;;;;;;;20.27;10.18;;;11.40;99.90;;;;;;5025894;28;20397;-62
2023/05/14 03:51:14;;;;;;;22.70;11.15;;;11.40;99.90;;;;;;5008609;28;20051;-62
2023/05/14 03:53:40;;;;;;;23.17;10.15;;;11.40;99.90;;;;;;5023711;28;20041;-62
2023/05/14 03:56:06;;;;;;;21.10;10.85;;;11.40;99.90;;;;;;5009658;28;20123;-62
2023/05/14 03:58:32;;;;;;;25.58;11.52;;;11.40;99.90;;;;;;4993188;28;20041;-62
2023/05/14 04:00:59;;;;;;;21.17;11.48;;;11.40;99.90;;;;;;5011928;28;20078;-62
2023/05/14 04:03:24;;;;;;;30.85;10.75;;;11.50;99.90;;;;;;5013520;28;20314;-62
2023/05/14 04:05:50;;;;;;;22.45;10.43;;;11.50;99.90;;;;;;5031405;28;20094;-62
2023/05/14 04:08:16;;;;;;;26.65;12.43;;;11.50;99.90;;;;;;5024015;28;20088;-63
2023/05/14 04:10:42;;;;;;;24.05;13.23;;;11.50;99.90;;;;;;5011341;28;20044;-62
2023/05/14 04:13:07;;;;;;;27.10;12.85;;;11.60;99.90;;;;;;5008402;28;20076;-63
2023/05/14 04:15:34;;;;;;;27.50;12.90;;;11.60;99.90;;;;;;5040688;28;20046;-63
2023/05/14 04:18:00;;;;;;;23.35;12.35;;;11.60;99.90;;;;;;5026055;28;20048;-62
2023/05/14 04:20:26;;;;;;;21.17;10.32;;;11.60;99.90;;;;;;5027000;28;20131;-62
2023/05/14 04:22:53;;;;;;;26.75;10.88;;;11.70;99.90;;;;;;5028412;28;20034;-63
2023/05/14 04:25:18;;;;;;;29.65;11.30;;;11.70;99.90;;;;;;5024270;28;20037;-62
2023/05/14 04:27:44;;;;;;;21.55;11.20;;;11.80;99.90;;;;;;5029021;28;20111;-63
2023/05/14 04:30:11;;;;;;;26.80;11.32;;;11.90;99.90;;;;;;5046819;28;20060;-63
2023/05/14 04:32:36;;;;;;;24.83;12.35;;;11.90;99.90;;;;;;5022518;28;20037;-63
2023/05/14 04:35:03;;;;;;;23.80;12.13;;;11.90;99.90;;;;;;5021794;28;20566;-62
2023/05/14 04:37:30;;;;;;;20.48;11.25;;;11.90;99.90;;;;;;5027208;28;20122;-63
2023/05/14 04:39:56;;;;;;;34.60;13.02;;;11.90;99.90;;;;;;5008173;28;20490;-62
2023/05/14 04:42:21;;;;;;;22.00;12.15;;;11.90;99.90;;;;;;5007408;28;20038;-62
2023/05/14 04:44:47;;;;;;;29.70;14.45;;;11.90;99.90;;;;;;5022980;28;20049;-62
2023/05/14 04:47:13;;;;;;;24.25;12.05;;;11.90;99.90;;;;;;5010758;28;20396;-62
2023/05/14 04:49:39;;;;;;;23.45;12.13;;;11.90;99.90;;;;;;5007237;28;20045;-62
2023/05/14 04:52:05;;;;;;;20.33;11.48;;;11.90;99.90;;;;;;5028021;28;20041;-63
2023/05/14 04:54:31;;;;;;;24.13;13.60;;;11.90;99.90;;;;;;5028422;28;20489;-63
2023/05/14 04:57:01;;;;;;;30.42;14.77;;;11.90;99.90;;;;;;5022732;28;20048;-63
2023/05/14 04:59:28;;;;;;;21.73;11.35;;;11.80;99.90;;;;;;5010037;28;20122;-62
2023/05/14 05:01:54;;;;;;;24.00;9.90;;;11.80;99.90;;;;;;5027589;28;20036;-62
2023/05/14 05:04:19;;;;;;;16.77;9.60;;;11.80;99.90;;;;;;5030386;28;20037;-62
2023/05/14 05:06:45;;;;;;;22.23;10.43;;;11.80;99.90;;;;;;5021825;28;20508;-62
2023/05/14 05:09:11;;;;;;;19.00;9.68;;;11.90;99.90;;;;;;5040498;28;20049;-63
2023/05/14 05:11:37;;;;;;;21.20;10.52;;;11.90;99.90;;;;;;5007982;28;20037;-63
2023/05/14 05:14:03;;;;;;;18.05;9.60;;;11.90;99.90;;;;;;5018645;28;20129;-62
2023/05/14 05:16:29;;;;;;;18.83;8.70;;;11.90;99.90;;;;;;5009282;28;20117;-63
2023/05/14 05:18:55;;;;;;;18.73;9.60;;;11.90;99.90;;;;;;5027255;28;20041;-63
2023/05/14 05:21:20;;;;;;;22.63;9.40;;;11.90;99.90;;;;;;5041975;28;20084;-61
2023/05/14 05:23:46;;;;;;;21.35;9.63;;;12.00;99.90;;;;;;5009988;28;20132;-62
2023/05/14 05:26:12;;;;;;;21.85;9.65;;;11.90;99.90;;;;;;5028960;28;20049;-63
2023/05/14 05:28:37;;;;;;;25.35;9.05;;;12.00;99.90;;;;;;5007469;28;20148;-62
2023/05/14 05:31:03;;;;;;;21.67;10.32;;;12.00;99.90;;;;;;5032894;28;20485;-63
2023/05/14 05:33:29;;;;;;;23.55;9.80;;;12.10;99.90;;;;;;5024256;28;20069;-63
2023/05/14 05:35:55;;;;;;;24.48;10.90;;;12.10;99.90;;;;;;5024025;28;20055;-63
2023/05/14 05:38:21;;;;;;;25.23;11.82;;;12.20;99.90;;;;;;5027641;28;20182;-62
2023/05/14 05:40:47;;;;;;;16.98;9.45;;;12.30;99.90;;;;;;5028355;28;20542;-62
2023/05/14 05:43:14;;;;;;;24.58;11.00;;;12.30;99.90;;;;;;5011056;28;20042;-62
2023/05/14 05:45:40;;;;;;;22.13;10.40;;;12.40;99.90;;;;;;5030985;28;20033;-63
2023/05/14 05:48:06;;;;;;;27.45;12.43;;;12.40;99.90;;;;;;5022076;28;20373;-63
2023/05/14 05:50:31;;;;;;;18.75;11.27;;;12.40;99.90;;;;;;5028666;28;20099;-63
2023/05/14 05:52:58;;;;;;;43.25;12.15;;;12.50;99.90;;;;;;5025338;28;20493;-62
2023/05/14 05:55:24;;;;;;;34.17;11.80;;;12.50;99.90;;;;;;5025325;28;20124;-62
2023/05/14 05:57:50;;;;;;;25.38;11.27;;;12.60;99.90;;;;;;5037297;28;20470;-62
2023/05/14 06:00:16;;;;;;;19.23;10.77;;;12.60;99.90;;;;;;5019867;28;20071;-62
2023/05/14 06:02:42;;;;;;;26.95;11.70;;;12.60;99.90;;;;;;4984970;28;20056;-63
2023/05/14 06:05:09;;;;;;;18.63;10.70;;;12.60;99.90;;;;;;4989092;28;20037;-62
2023/05/14 06:07:35;;;;;;;23.60;11.88;;;12.60;99.90;;;;;;5006322;28;20038;-62
2023/05/14 06:10:01;;;;;;;27.73;11.93;;;12.60;99.90;;;;;;5022068;28;20103;-62
2023/05/14 06:12:27;;;;;;;23.75;11.63;;;12.70;99.90;;;;;;5020944;28;20041;-62
2023/05/14 06:14:56;;;;;;;21.30;10.23;;;12.70;99.90;;;;;;5021722;28;20060;-61
2023/05/14 06:17:26;;;;;;;21.42;10.80;;;12.70;99.90;;;;;;4998904;28;20053;-62
2023/05/14 06:19:52;;;;;;;20.65;9.70;;;12.80;99.90;;;;;;5018666;28;20057;-62
2023/05/14 06:22:18;;;;;;;21.08;9.38;;;12.90;99.90;;;;;;5004286;28;20046;-62
2023/05/14 06:24:43;;;;;;;18.48;9.13;;;13.00;99.90;;;;;;5003082;28;20048;-62
2023/05/14 06:27:10;;;;;;;18.65;8.40;;;13.00;99.90;;;;;;5023711;28;20041;-62
2023/05/14 06:29:36;;;;;;;16.98;7.93;;;13.10;99.90;;;;;;5027046;28;20095;-62
2023/05/14 06:32:03;;;;;;;20.33;9.40;;;13.10;99.90;;;;;;5018088;28;20057;-62
2023/05/14 06:34:29;;;;;;;19.27;9.27;;;13.10;99.90;;;;;;5023602;28;20049;-62
2023/05/14 06:36:56;;;;;;;13.77;8.00;;;13.20;99.90;;;;;;5018092;28;20042;-61
2023/05/14 06:39:23;;;;;;;18.42;8.18;;;13.20;99.90;;;;;;5003924;28;20048;-61
2023/05/14 06:41:49;;;;;;;16.30;8.18;;;13.30;99.90;;;;;;5013228;28;20036;-61
2023/05/14 06:44:17;;;;;;;20.38;8.52;;;13.40;99.90;;;;;;5018122;28;20045;-61
2023/05/14 06:46:42;;;;;;;14.27;7.32;;;13.50;99.90;;;;;;5026880;28;20048;-61
2023/05/14 06:49:08;;;;;;;22.05;8.18;;;13.60;99.90;;;;;;4973502;28;20044;-61
2023/05/14 06:51:34;;;;;;;12.55;6.75;;;13.70;99.90;;;;;;5027317;28;20108;-62
2023/05/14 06:54:00;;;;;;;12.05;6.43;;;13.70;99.90;;;;;;5022820;28;20108;-61
2023/05/14 06:56:25;;;;;;;20.05;8.15;;;13.80;99.90;;;;;;4992679;28;20045;-61
2023/05/14 06:58:51;;;;;;;18.58;6.95;;;13.80;99.90;;;;;;4992210;28;20045;-62
2023/05/14 07:01:17;;;;;;;15.05;6.30;;;13.90;99.90;;;;;;5011080;28;20057;-61
2023/05/14 07:03:42;;;;;;;15.43;6.75;;;14.00;99.90;;;;;;5005108;28;20451;-61
2023/05/14 07:06:08;;;;;;;10.45;6.07;;;14.10;99.90;;;;;;5008496;28;20041;-61
2023/05/14 07:08:34;;;;;;;16.35;6.88;;;14.10;99.90;;;;;;5023894;28;20103;-61
2023/05/14 07:11:00;;;;;;;16.77;7.63;;;14.10;99.90;;;;;;5019051;28;20370;-63
2023/05/14 07:13:27;;;;;;;13.70;6.50;;;14.20;99.90;;;;;;5024090;28;20091;-62
2023/05/14 07:15:54;;;;;;;12.93;6.75;;;14.20;99.90;;;;;;5020993;28;20501;-62
2023/05/14 07:18:21;;;;;;;13.27;7.00;;;14.30;99.90;;;;;;4998595;28;20099;-62
2023/05/14 07:20:47;;;;;;;15.07;6.57;;;14.40;99.90;;;;;;5025573;28;20084;-62
2023/05/14 07:23:12;;;;;;;12.98;6.55;;;14.50;99.90;;;;;;5006042;28;20061;-62
2023/05/14 07:25:38;;;;;;;14.40;6.57;;;14.60;99.90;;;;;;5020634;28;20049;-62
2023/05/14 07:28:04;;;;;;;13.68;7.10;;;14.70;99.90;;;;;;5008648;28;20046;-62
2023/05/14 07:30:29;;;;;;;16.17;7.45;;;14.90;99.90;;;;;;5011208;28;20033;-62
2023/05/14 07:32:55;;;;;;;20.73;7.32;;;15.00;99.90;;;;;;5024254;28;20407;-62
2023/05/14 07:35:22;;;;;;;13.68;6.22;;;15.10;99.90;;;;;;5027895;28;20060;-62
2023/05/14 07:37:48;;;;;;;10.18;5.85;;;15.30;99.90;;;;;;5013500;28;20070;-62
2023/05/14 07:40:13;;;;;;;16.42;6.70;;;15.40;99.90;;;;;;5023896;28;20089;-62
2023/05/14 07:42:39;;;;;;;12.52;6.20;;;15.40;99.90;;;;;;5023039;28;20086;-62
2023/05/14 07:45:05;;;;;;;13.85;6.00;;;15.40;99.90;;;;;;5009664;28;20037;-61
2023/05/14 07:47:31;;;;;;;13.13;6.35;;;15.50;99.90;;;;;;5022590;28;20060;-63
2023/05/14 07:49:57;;;;;;;14.98;6.38;;;15.60;99.90;;;;;;5022101;28;20049;-62
2023/05/14 07:52:23;;;;;;;11.80;6.10;;;15.60;99.90;;;;;;5023156;28;20474;-63
2023/05/14 07:54:50;;;;;;;16.63;7.47;;;15.60;99.90;;;;;;5003877;28;20033;-62
2023/05/14 07:57:16;;;;;;;15.88;7.65;;;15.60;99.90;;;;;;5019846;28;20140;-62
2023/05/14 07:59:42;;;;;;;11.80;6.22;;;15.70;99.90;;;;;;5016172;28;20049;-63
2023/05/14 08:02:11;;;;;;;15.75;6.15;;;15.80;99.90;;;;;;5020537;28;20049;-63
2023/05/14 08:04:37;;;;;;;13.15;6.53;;;16.00;99.90;;;;;;5008935;28;20037;-62
2023/05/14 08:07:03;;;;;;;19.05;7.72;;;16.00;99.90;;;;;;5020568;28;20064;-62
2023/05/14 08:09:29;;;;;;;12.85;6.50;;;16.10;99.90;;;;;;5010660;28;20063;-62
2023/05/14 08:11:55;;;;;;;24.58;8.10;;;16.10;99.90;;;;;;5009080;28;20041;-62
2023/05/14 08:14:21;;;;;;;15.25;6.80;;;16.10;99.90;;;;;;5026330;28;20583;-62
2023/05/14 08:16:47;;;;;;;14.18;7.22;;;16.10;99.90;;;;;;5011480;28;20160;-62
2023/05/14 08:19:13;;;;;;;14.35;6.00;;;16.20;99.90;;;;;;5028140;28;20041;-62
2023/05/14 08:21:39;;;;;;;20.45;7.68;;;16.20;99.90;;;;;;5009948;28;20033;-62
2023/05/14 08:24:05;;;;;;;18.70;7.13;;;16.20;99.90;;;;;;4992882;28;20045;-62
2023/05/14 08:26:31;;;;;;;16.52;7.43;;;16.20;99.90;;;;;;5007955;28;20045;-62
2023/05/14 08:28:57;;;;;;;14.82;6.38;;;16.20;99.90;;;;;;5020480;28;20051;-62
2023/05/14 08:31:22;;;;;;;12.27;6.00;;;16.30;99.90;;;;;;5005901;28;20673;-60
2023/05/14 08:33:48;;;;;;;11.27;6.57;;;16.40;99.90;;;;;;5002859;28;20125;-62
2023/05/14 08:36:14;;;;;;;15.55;6.82;;;16.40;99.90;;;;;;5003809;28;20053;-64
2023/05/14 08:38:40;;;;;;;13.25;6.90;;;16.30;99.90;;;;;;5004219;28;20042;-63
2023/05/14 08:41:07;;;;;;;14.45;7.35;;;16.30;99.90;;;;;;5026905;28;20121;-63
2023/05/14 08:43:54;;;;;;;15.60;7.40;;;16.40;99.90;;;;;;5023044;28;20050;-62
2023/05/14 08:46:23;;;;;;;14.20;6.85;;;16.40;99.90;;;;;;5016949;28;20857;-63
2023/05/14 08:48:59;;;;;;;11.75;5.78;;;16.50;99.90;;;;;;5023014;28;20373;-63
2023/05/14 08:51:26;;;;;;;12.82;6.07;;;16.60;99.90;;;;;;5024685;28;20194;-63
2023/05/14 08:53:52;;;;;;;13.48;7.10;;;16.70;99.90;;;;;;5007438;28;20038;-63
2023/05/14 08:56:18;;;;;;;18.15;7.22;;;16.70;99.90;;;;;;5017636;28;20104;-63
2023/05/14 08:58:44;;;;;;;13.10;7.45;;;16.80;99.90;;;;;;5021898;28;20034;-63
2023/05/14 09:01:10;;;;;;;12.15;6.53;;;16.80;99.90;;;;;;5021686;28;20046;-63
2023/05/14 09:03:36;;;;;;;12.35;6.78;;;17.00;99.90;;;;;;5021666;28;20396;-64
2023/05/14 09:06:03;;;;;;;18.48;7.93;;;17.10;99.90;;;;;;5020457;28;20113;-61
2023/05/14 09:08:29;;;;;;;11.77;6.80;;;17.30;99.90;;;;;;5018865;28;20044;-64
2023/05/14 09:10:55;;;;;;;12.32;6.40;;;17.40;99.90;;;;;;5007551;28;20037;-63
2023/05/14 09:13:20;;;;;;;17.52;7.13;;;17.40;99.90;;;;;;4998209;28;20116;-63
2023/05/14 09:15:48;;;;;;;13.60;6.43;;;17.40;99.90;;;;;;5018641;28;20037;-63
2023/05/14 09:18:14;;;;;;;12.13;5.85;;;17.50;99.90;;;;;;5017168;28;20058;-63
2023/05/14 09:20:40;;;;;;;15.95;6.72;;;17.70;99.90;;;;;;5020671;28;20480;-62
2023/05/14 09:23:06;;;;;;;15.38;6.20;;;17.80;99.90;;;;;;5018937;28;20100;-64
2023/05/14 09:25:32;;;;;;;12.98;6.15;;;18.00;99.90;;;;;;5019330;28;20037;-62
2023/05/14 09:27:58;;;;;;;17.23;6.53;;;18.00;99.90;;;;;;5010173;28;20120;-63
2023/05/14 09:30:25;;;;;;;12.65;6.50;;;18.00;99.90;;;;;;5026832;28;20047;-62
2023/05/14 09:32:53;;;;;;;15.32;6.25;;;18.00;99.90;;;;;;5007519;28;20053;-63
2023/05/14 09:35:23;;;;;;;16.08;7.10;;;18.10;99.90;;;;;;5009427;28;20508;-62
2023/05/14 09:37:50;;;;;;;11.80;6.68;;;18.10;99.90;;;;;;5024865;28;20156;-62
2023/05/14 09:40:18;;;;;;;15.15;6.80;;;18.20;99.90;;;;;;5020022;28;20045;-62
2023/05/14 09:42:44;;;;;;;11.52;6.97;;;18.10;99.90;;;;;;5027980;28;20719;-62
2023/05/14 09:45:10;;;;;;;14.85;6.82;;;18.20;99.90;;;;;;5025575;28;20034;-63
2023/05/14 09:47:38;;;;;;;11.90;6.55;;;18.40;99.90;;;;;;5028526;28;20072;-63
2023/05/14 09:50:05;;;;;;;11.93;7.05;;;18.60;99.90;;;;;;5007047;28;20049;-62
2023/05/14 09:52:31;;;;;;;16.25;7.47;;;18.60;99.90;;;;;;5039578;28;20051;-62
2023/05/14 09:54:57;;;;;;;16.30;7.82;;;18.70;99.90;;;;;;5006468;28;20136;-63
2023/05/14 09:57:23;;;;;;;13.45;7.25;;;18.70;99.90;;;;;;5014846;28;20037;-62
2023/05/14 09:59:48;;;;;;;21.38;6.75;;;18.80;99.90;;;;;;5010937;28;20048;-62
2023/05/14 10:02:25;;;;;;;15.40;6.82;;;19.10;99.90;;;;;;5005683;28;20536;-62
2023/05/14 10:04:53;;;;;;;11.45;6.45;;;19.10;99.90;;;;;;5003661;28;20108;-62
2023/05/14 10:07:27;;;;;;;12.95;7.10;;;19.00;99.90;;;;;;5023204;28;20091;-62
2023/05/14 10:10:00;;;;;;;18.17;7.28;;;19.00;99.90;;;;;;5021517;28;20133;-62
2023/05/14 10:12:31;;;;;;;15.40;6.50;;;19.00;99.90;;;;;;5018866;28;20045;-62
2023/05/14 10:15:01;;;;;;;17.77;7.10;;;18.90;99.90;;;;;;5022008;28;20045;-62
2023/05/14 10:17:31;;;;;;;13.57;6.03;;;19.10;99.90;;;;;;4997765;28;20574;-63
2023/05/14 10:19:58;;;;;;;14.18;6.70;;;19.20;99.90;;;;;;5018056;28;20321;-62
2023/05/14 10:22:29;;;;;;;13.18;7.22;;;19.30;99.90;;;;;;5023249;28;20041;-63
2023/05/14 10:24:55;;;;;;;15.25;8.52;;;19.30;99.90;;;;;;5018508;28;20394;-62
2023/05/14 10:27:22;;;;;;;13.35;6.60;;;19.40;99.90;;;;;;5019957;28;20102;-62
2023/05/14 10:29:53;;;;;;;12.10;6.55;;;19.50;99.90;;;;;;5003642;28;20060;-62
2023/05/14 10:32:20;;;;;;;12.77;7.10;;;19.50;99.90;;;;;;5018978;28;20068;-63
2023/05/14 10:34:47;;;;;;;17.10;7.70;;;19.40;99.90;;;;;;5038673;28;20046;-62
2023/05/14 10:37:24;;;;;;;15.80;7.25;;;19.50;99.90;;;;;;5006124;28;20042;-63
2023/05/14 10:39:57;;;;;;;13.43;6.97;;;19.40;99.90;;;;;;5010769;28;20033;-62
2023/05/14 10:42:32;;;;;;;12.35;6.38;;;19.50;99.90;;;;;;5025398;28;20099;-62
2023/05/14 10:45:01;;;;;;;12.75;7.55;;;19.70;99.90;;;;;;5012589;28;20033;-62
2023/05/14 10:47:28;;;;;;;11.18;6.93;;;19.70;99.90;;;;;;5035296;28;20049;-61
2023/05/14 10:49:55;;;;;;;13.77;6.90;;;19.90;99.90;;;;;;5032432;28;20037;-61
2023/05/14 10:52:21;;;;;;;14.55;6.43;;;19.70;99.90;;;;;;5023395;28;20294;-61
2023/05/14 10:54:51;;;;;;;17.35;8.48;;;19.80;99.90;;;;;;5025799;28;20128;-61
2023/05/14 10:57:18;;;;;;;12.40;7.28;;;19.90;99.90;;;;;;5023958;28;20042;-62
2023/05/14 10:59:52;;;;;;;9.55;6.22;;;20.00;99.90;;;;;;5026093;28;20146;-62
2023/05/14 11:02:26;;;;;;;11.65;7.18;;;20.10;99.90;;;;;;5033903;28;20576;-63
2023/05/14 11:05:02;;;;;;;9.90;6.15;;;20.20;99.90;;;;;;5021148;28;20722;-63
2023/05/14 11:07:48;;;;;;;10.40;8.05;;;20.30;99.90;;;;;;5024169;28;20051;-62
2023/05/14 11:10:19;;;;;;;13.70;7.13;;;20.40;99.90;;;;;;5025281;28;20060;-62
2023/05/14 11:12:49;;;;;;;9.32;6.00;;;20.40;99.90;;;;;;5006344;28;20049;-62
2023/05/14 11:15:21;;;;;;;12.25;6.53;;;20.60;99.90;;;;;;5007826;28;20042;-62
2023/05/14 11:17:49;;;;;;;14.02;6.88;;;20.70;99.90;;;;;;5023842;28;20111;-62
2023/05/14 11:20:16;;;;;;;13.52;7.00;;;20.90;99.90;;;;;;5024766;28;20047;-62
2023/05/14 11:22:42;;;;;;;11.93;7.88;;;20.90;99.90;;;;;;5023316;28;20514;-65
2023/05/14 11:25:09;;;;;;;10.98;6.10;;;21.00;99.90;;;;;;5028408;28;20041;-63
2023/05/14 11:27:38;;;;;;;13.13;7.85;;;21.20;99.90;;;;;;5009527;28;20496;-63
2023/05/14 11:30:05;;;;;;;17.15;8.25;;;21.30;99.90;;;;;;5007197;28;20463;-63
2023/05/14 11:32:31;;;;;;;10.93;7.00;;;21.30;99.90;;;;;;5041455;28;20396;-62
2023/05/14 11:34:57;;;;;;;12.73;6.32;;;21.20;99.90;;;;;;5039126;28;20353;-63
2023/05/14 11:37:23;;;;;;;10.85;6.43;;;21.20;99.90;;;;;;5021854;28;20045;-63
2023/05/14 11:39:52;;;;;;;15.23;7.97;;;21.50;99.90;;;;;;5025821;28;20111;-63
2023/05/14 11:42:19;;;;;;;10.10;6.72;;;21.60;99.90;;;;;;5032862;28;20038;-62
2023/05/14 11:44:55;;;;;;;12.35;6.50;;;21.70;99.90;;;;;;5019716;28;20359;-62
2023/05/14 11:47:21;;;;;;;12.98;6.90;;;21.90;99.90;;;;;;5025933;28;20077;-62
2023/05/14 11:49:48;;;;;;;8.98;5.97;;;22.10;99.90;;;;;;5008195;28;20108;-61
2023/05/14 11:52:15;;;;;;;15.32;8.68;;;22.10;99.90;;;;;;5025423;28;20042;-61
2023/05/14 11:54:42;;;;;;;10.10;7.63;;;22.20;99.90;;;;;;5044314;28;20045;-61
2023/05/14 11:57:12;;;;;;;11.50;8.50;;;22.30;99.90;;;;;;5042861;28;20368;-60
2023/05/14 11:59:39;;;;;;;13.63;6.93;;;22.30;99.70;;;;;;5037620;28;20045;-61
2023/05/14 12:02:09;;;;;;;11.55;8.07;;;22.40;99.60;;;;;;5024089;28;20112;-62
2023/05/14 12:04:35;;;;;;;9.10;6.43;;;22.30;98.90;;;;;;5020371;28;20083;-62
2023/05/14 12:07:10;;;;;;;13.18;6.90;;;22.20;99.20;;;;;;5016477;28;20033;-61
2023/05/14 12:09:38;;;;;;;12.45;7.20;;;22.20;98.90;;;;;;5016395;28;20049;-61
2023/05/14 12:12:11;;;;;;;11.15;7.43;;;22.30;99.30;;;;;;5017663;28;20550;-60
2023/05/14 12:14:41;;;;;;;9.88;6.60;;;22.40;98.70;;;;;;5001338;28;20135;-60
2023/05/14 12:17:13;;;;;;;11.52;7.55;;;22.00;98.70;;;;;;4999435;28;20076;-60
2023/05/14 12:19:40;;;;;;;11.23;6.90;;;21.70;99.10;;;;;;5018783;28;20041;-60
2023/05/14 12:22:07;;;;;;;11.57;6.50;;;21.80;99.30;;;;;;5026658;28;20135;-60
2023/05/14 12:24:33;;;;;;;11.52;7.00;;;21.80;99.00;;;;;;5022633;28;20412;-60
2023/05/14 12:27:00;;;;;;;12.65;7.30;;;21.90;99.20;;;;;;4990431;28;20041;-60
2023/05/14 12:29:26;;;;;;;14.43;6.43;;;22.00;99.00;;;;;;5023729;28;20111;-60
2023/05/14 12:31:52;;;;;;;9.80;6.30;;;22.10;99.10;;;;;;5020947;28;20045;-60